Fredericton, Canada
Current Conditions -  °F | °C
As of 3:00 AM on Sunday 26 Oct 2014 (Local Time) from CYFC Reporting Station
Overcast Overcast  
Wind Chill: 41°   Ceiling: 500
Heat Index: 41°   Visibility: 9mi
Dew Point: 41°   Wind: 3mph
Humidity: 100%   Direction: 90°E
Pressure: 29.49"   Gusts: NA
Location:  45.96°N, 66.64°W
Report Text: CYFC 260600Z AUTO 09003KT 9SM OVC005 05/05 A2949 RMK SLP987
Loading
Personal Weather Stations






























Interactive Weather Map
Tropical Storm Tracking
New forecast layout! Learn more

10-Day Weather Forecast

Advertisements
Track Severe Weather on mobile